Emmen, Emmen Air Base (LSME)

NameEmmen Air Base
CityEmmen
CountrySwitzerland
ICAOLSME
IATAEML
Altitude426 m
CoordinatesGoogle Map
Live Air TrafficLiveATC.net
METARLSME 151150Z VRB02KT CAVOK 19/11 Q1013 RMK BLU
2018-10-15 11:50:00 Wind: North (0°) 1.03 m/s - Visibility: > 10000 m - Weather: CAVOK - Temperature: 19 °C - Dew point: 11 °C - Humidity: 59.9% - Pressure: 1013 hPa
Statistics

The table below shows the detailed information of all flights to/from Emmen, Emmen Air Base (LSME).